createdAt,value
2017-09-29T00:00:23.717Z,16.05
2017-09-29T00:02:58.581Z,16.04
2017-09-29T00:05:33.318Z,16.08
2017-09-29T00:08:08.264Z,16.05
2017-09-29T00:10:43.042Z,16.06
2017-09-29T00:13:18.098Z,16.06
2017-09-29T00:15:53.325Z,16.06
2017-09-29T00:18:28.652Z,16.05
2017-09-29T00:21:03.815Z,16.01
2017-09-29T00:23:38.334Z,15.99
2017-09-29T00:26:13.267Z,16.02
2017-09-29T00:28:48.092Z,16.02
2017-09-29T00:31:22.522Z,16.02
2017-09-29T00:33:57.522Z,16.04
2017-09-29T00:36:31.905Z,16.08
2017-09-29T00:39:06.750Z,16.03
2017-09-29T00:41:41.905Z,16.04
2017-09-29T00:44:16.174Z,16.09
2017-09-29T00:46:51.410Z,16.12
2017-09-29T00:49:26.093Z,16.10
2017-09-29T00:52:00.875Z,16.13
2017-09-29T00:54:35.645Z,16.17
2017-09-29T00:57:10.105Z,16.21
2017-09-29T00:59:44.976Z,16.22
2017-09-29T01:02:19.998Z,16.20
2017-09-29T01:04:54.909Z,16.19
2017-09-29T01:07:29.742Z,16.20
2017-09-29T01:10:05.094Z,16.17
2017-09-29T01:12:39.530Z,16.17
2017-09-29T01:15:13.974Z,16.19
2017-09-29T01:17:48.649Z,16.22
2017-09-29T01:20:23.261Z,16.20
2017-09-29T01:22:58.130Z,16.16
2017-09-29T01:25:32.817Z,16.05
2017-09-29T01:28:07.674Z,16.05
2017-09-29T01:30:42.353Z,16.04
2017-09-29T01:33:17.100Z,16.04
2017-09-29T01:35:52.006Z,16.08
2017-09-29T01:38:26.866Z,16.13
2017-09-29T01:41:01.652Z,16.11
2017-09-29T01:43:36.411Z,16.06
2017-09-29T01:46:11.193Z,16.04
2017-09-29T01:48:45.984Z,16.06
2017-09-29T01:51:20.682Z,16.05
2017-09-29T01:53:55.506Z,16.05
2017-09-29T01:56:29.962Z,16.07
2017-09-29T01:59:04.706Z,16.06
2017-09-29T02:01:39.246Z,16.04
2017-09-29T02:04:13.875Z,16.02
2017-09-29T02:06:48.616Z,16.00
2017-09-29T02:09:23.981Z,15.97
2017-09-29T02:11:58.765Z,15.91
2017-09-29T02:14:32.902Z,15.89
2017-09-29T02:17:07.730Z,15.88
2017-09-29T02:19:42.730Z,15.88
2017-09-29T02:22:17.390Z,15.87
2017-09-29T02:24:52.533Z,15.92
2017-09-29T02:27:27.017Z,15.93
2017-09-29T02:30:01.947Z,15.95
2017-09-29T02:32:37.074Z,15.93
2017-09-29T02:35:12.757Z,15.95
2017-09-29T02:37:47.581Z,16.00
2017-09-29T02:40:22.510Z,16.04
2017-09-29T02:42:57.158Z,16.04
2017-09-29T02:45:32.033Z,16.07
2017-09-29T02:48:07.086Z,16.09
2017-09-29T02:50:41.848Z,16.08
2017-09-29T02:53:16.650Z,16.09
2017-09-29T02:55:51.301Z,16.11
2017-09-29T02:58:26.797Z,16.12
2017-09-29T03:01:04.161Z,16.12
2017-09-29T03:03:39.062Z,16.12
2017-09-29T03:06:14.501Z,16.09
2017-09-29T03:08:49.241Z,16.03
2017-09-29T03:11:23.790Z,16.02
2017-09-29T03:13:58.542Z,16.03
2017-09-29T03:16:33.449Z,16.00
2017-09-29T03:19:08.376Z,15.94
2017-09-29T03:21:43.085Z,15.91
2017-09-29T03:24:17.618Z,15.84
2017-09-29T03:26:52.869Z,15.77
2017-09-29T03:29:27.263Z,15.81
2017-09-29T03:32:02.421Z,15.85
2017-09-29T03:34:37.421Z,15.88
2017-09-29T03:37:12.198Z,15.85
2017-09-29T03:39:47.062Z,15.85
2017-09-29T03:42:21.870Z,15.88
2017-09-29T03:44:56.546Z,15.90
2017-09-29T03:47:31.609Z,15.86
2017-09-29T03:50:10.173Z,15.82
2017-09-29T03:52:46.086Z,15.81
2017-09-29T03:55:22.629Z,15.73
2017-09-29T03:57:58.097Z,15.65
2017-09-29T04:00:32.646Z,15.65
2017-09-29T04:03:07.594Z,15.62
2017-09-29T04:05:42.178Z,15.60
2017-09-29T04:08:17.165Z,15.59
2017-09-29T04:10:51.930Z,15.56
2017-09-29T04:13:26.901Z,15.54
2017-09-29T04:16:01.170Z,15.52
2017-09-29T04:18:36.373Z,15.52
2017-09-29T04:21:10.999Z,15.52
2017-09-29T04:23:45.874Z,15.50
2017-09-29T04:26:20.587Z,15.50
2017-09-29T04:28:55.229Z,15.44
2017-09-29T04:31:30.110Z,15.35
2017-09-29T04:34:05.070Z,15.36
2017-09-29T04:36:39.846Z,15.38
2017-09-29T04:39:14.597Z,15.35
2017-09-29T04:41:49.753Z,15.34
2017-09-29T04:44:25.178Z,15.33
2017-09-29T04:47:00.081Z,15.28
2017-09-29T04:49:34.865Z,15.24
2017-09-29T04:52:09.797Z,15.18
2017-09-29T04:54:44.490Z,15.14
2017-09-29T04:57:19.046Z,15.16
2017-09-29T04:59:54.169Z,15.23
2017-09-29T05:02:28.901Z,15.22
2017-09-29T05:05:04.347Z,15.20
2017-09-29T05:07:39.761Z,15.13
2017-09-29T05:10:14.537Z,15.03
2017-09-29T05:12:49.365Z,15.00
2017-09-29T05:15:24.134Z,15.02
2017-09-29T05:17:58.721Z,15.04
2017-09-29T05:20:33.230Z,15.01
2017-09-29T05:23:07.929Z,15.02
2017-09-29T05:25:42.833Z,14.95
2017-09-29T05:28:17.046Z,14.93
2017-09-29T05:30:52.113Z,14.86
2017-09-29T05:33:26.965Z,14.81
2017-09-29T05:36:01.705Z,14.80
2017-09-29T05:38:36.721Z,14.76
2017-09-29T05:41:11.582Z,14.73
2017-09-29T05:43:46.496Z,14.72
2017-09-29T05:46:21.114Z,14.69
2017-09-29T05:48:55.770Z,14.69
2017-09-29T05:51:30.539Z,14.71
2017-09-29T05:54:05.297Z,14.67
2017-09-29T05:56:40.173Z,14.65
2017-09-29T05:59:15.077Z,14.61
2017-09-29T06:01:49.550Z,14.73
2017-09-29T06:04:24.314Z,14.93
2017-09-29T06:06:59.113Z,15.10
2017-09-29T06:09:34.049Z,15.22
2017-09-29T06:12:08.932Z,15.30
2017-09-29T06:14:44.311Z,15.40
2017-09-29T06:17:19.049Z,15.52
2017-09-29T06:19:54.013Z,15.61
2017-09-29T06:22:29.056Z,15.77
2017-09-29T06:25:03.927Z,15.73
2017-09-29T06:27:38.660Z,15.76
2017-09-29T06:30:13.454Z,15.80
2017-09-29T06:32:48.302Z,15.75
2017-09-29T06:35:23.286Z,15.72
2017-09-29T06:37:58.277Z,15.73
2017-09-29T06:40:33.313Z,15.75
2017-09-29T06:43:07.997Z,15.78
2017-09-29T06:45:43.065Z,15.85
2017-09-29T06:48:17.500Z,15.93
2017-09-29T06:50:52.202Z,16.00
2017-09-29T06:53:26.949Z,16.12
2017-09-29T06:56:01.781Z,16.24
2017-09-29T06:58:36.585Z,16.28
2017-09-29T07:01:11.241Z,16.34
2017-09-29T07:03:45.889Z,16.42
2017-09-29T07:06:20.697Z,16.52
2017-09-29T07:08:55.393Z,16.64
2017-09-29T07:11:30.262Z,16.72
2017-09-29T07:14:04.934Z,16.78
2017-09-29T07:16:39.881Z,16.89
2017-09-29T07:19:14.837Z,16.99
2017-09-29T07:21:49.614Z,17.04
2017-09-29T07:24:24.398Z,17.06
2017-09-29T07:27:01.134Z,17.03
2017-09-29T07:29:37.318Z,17.08
2017-09-29T07:32:14.506Z,17.13
2017-09-29T07:34:49.186Z,17.09
2017-09-29T07:37:24.061Z,17.08
2017-09-29T07:39:58.941Z,17.18
2017-09-29T07:42:33.869Z,17.30
2017-09-29T07:45:08.773Z,17.41
2017-09-29T07:47:43.501Z,17.51
2017-09-29T07:50:18.253Z,17.59
2017-09-29T07:52:53.157Z,17.73
2017-09-29T07:55:27.809Z,17.87
2017-09-29T07:58:02.713Z,17.99
2017-09-29T08:00:38.606Z,18.14
2017-09-29T08:03:13.301Z,18.14
2017-09-29T08:05:48.058Z,18.09
2017-09-29T08:08:23.002Z,18.13
2017-09-29T08:10:57.637Z,18.08
2017-09-29T08:13:32.266Z,18.11
2017-09-29T08:16:06.467Z,18.18
2017-09-29T08:18:41.169Z,18.29
2017-09-29T08:21:16.138Z,18.38
2017-09-29T08:23:50.853Z,18.33
2017-09-29T08:26:25.641Z,18.46
2017-09-29T08:29:00.461Z,18.56
2017-09-29T08:31:35.104Z,18.63
2017-09-29T08:34:10.091Z,18.74
2017-09-29T08:36:45.482Z,18.81
2017-09-29T08:39:20.287Z,18.91
2017-09-29T08:41:55.041Z,19.04
2017-09-29T08:44:29.929Z,19.14
2017-09-29T08:47:04.551Z,19.13
2017-09-29T08:49:39.698Z,19.20
2017-09-29T08:52:14.426Z,19.24
2017-09-29T08:54:49.335Z,19.42
2017-09-29T08:57:24.011Z,19.48
2017-09-29T08:59:58.878Z,19.51
2017-09-29T09:02:33.434Z,19.54
2017-09-29T09:05:08.372Z,19.51
2017-09-29T09:07:43.274Z,19.37
2017-09-29T09:10:17.849Z,19.31
2017-09-29T09:12:52.487Z,19.38
2017-09-29T09:15:27.570Z,19.60
2017-09-29T09:18:02.163Z,19.90
2017-09-29T09:20:36.891Z,19.97
2017-09-29T09:23:11.622Z,20.16
2017-09-29T09:25:46.438Z,20.29
2017-09-29T09:28:21.201Z,20.37
2017-09-29T09:30:56.033Z,20.35
2017-09-29T09:33:30.694Z,20.62
2017-09-29T09:36:05.401Z,20.62
2017-09-29T09:38:40.050Z,20.55
2017-09-29T09:41:14.878Z,20.55
2017-09-29T09:43:49.358Z,20.55
2017-09-29T09:46:24.403Z,20.52
2017-09-29T09:48:58.878Z,20.52
2017-09-29T09:51:34.846Z,20.43
2017-09-29T09:54:09.519Z,20.36
2017-09-29T09:56:44.213Z,20.48
2017-09-29T09:59:18.769Z,20.36
2017-09-29T10:01:53.628Z,20.56
2017-09-29T10:04:28.202Z,20.43
2017-09-29T10:07:02.793Z,20.45
2017-09-29T10:09:37.785Z,20.54
2017-09-29T10:12:12.621Z,20.68
2017-09-29T10:14:47.289Z,20.97
2017-09-29T10:17:22.761Z,20.96
2017-09-29T10:19:57.801Z,20.95
2017-09-29T10:22:32.790Z,20.88
2017-09-29T10:25:07.338Z,20.96
2017-09-29T10:27:42.030Z,21.10
2017-09-29T10:30:16.817Z,21.18
2017-09-29T10:32:51.719Z,21.32
2017-09-29T10:35:26.502Z,21.29
2017-09-29T10:38:01.227Z,21.48
2017-09-29T10:40:35.987Z,21.38
2017-09-29T10:43:10.981Z,21.51
2017-09-29T10:45:45.766Z,21.73
2017-09-29T10:48:20.470Z,22.06
2017-09-29T10:50:55.325Z,22.46
2017-09-29T10:53:29.833Z,22.64
2017-09-29T10:56:04.577Z,23.00
2017-09-29T10:58:39.793Z,23.48
2017-09-29T11:01:14.558Z,23.66
2017-09-29T11:03:49.545Z,23.67
2017-09-29T11:06:24.389Z,23.41
2017-09-29T11:08:59.169Z,23.37
2017-09-29T11:11:34.001Z,23.53
2017-09-29T11:14:08.786Z,23.81
2017-09-29T11:16:43.610Z,23.40
2017-09-29T11:19:18.405Z,23.59
2017-09-29T11:21:53.137Z,24.07
2017-09-29T11:24:27.896Z,24.33
2017-09-29T11:27:02.709Z,24.14
2017-09-29T11:29:37.549Z,23.50
2017-09-29T11:32:12.722Z,23.49
2017-09-29T11:34:47.214Z,23.55
2017-09-29T11:37:22.037Z,23.74
2017-09-29T11:39:56.789Z,23.76
2017-09-29T11:42:31.815Z,23.83
2017-09-29T11:45:06.241Z,23.95
2017-09-29T11:47:41.129Z,24.07
2017-09-29T11:50:15.973Z,24.10
2017-09-29T11:52:50.909Z,23.51
2017-09-29T11:55:25.638Z,23.94
2017-09-29T11:58:00.614Z,24.04
2017-09-29T12:00:35.441Z,23.98
2017-09-29T12:03:10.356Z,23.87
2017-09-29T12:05:45.202Z,23.63
2017-09-29T12:08:19.995Z,23.53
2017-09-29T12:10:54.658Z,23.80
2017-09-29T12:13:29.698Z,24.31
2017-09-29T12:16:04.643Z,24.02
2017-09-29T12:18:39.602Z,23.86
2017-09-29T12:21:14.303Z,23.54
2017-09-29T12:23:49.183Z,23.68
2017-09-29T12:26:23.946Z,23.71
2017-09-29T12:28:58.762Z,23.49
2017-09-29T12:31:33.514Z,23.56
2017-09-29T12:34:08.417Z,23.56
2017-09-29T12:36:43.351Z,23.49
2017-09-29T12:39:18.109Z,23.29
2017-09-29T12:41:53.165Z,22.90
2017-09-29T12:44:27.691Z,22.63
2017-09-29T12:47:02.385Z,22.72
2017-09-29T12:49:37.245Z,22.64
2017-09-29T12:52:12.266Z,22.62
2017-09-29T12:54:46.949Z,22.54
2017-09-29T12:57:21.831Z,22.45
2017-09-29T12:59:56.687Z,22.60
2017-09-29T13:02:31.313Z,22.71
2017-09-29T13:05:06.069Z,22.61
2017-09-29T13:07:40.845Z,22.65
2017-09-29T13:10:15.691Z,22.51
2017-09-29T13:12:50.806Z,22.30
2017-09-29T13:15:25.761Z,22.38
2017-09-29T13:18:00.690Z,22.52
2017-09-29T13:20:35.768Z,22.47
2017-09-29T13:23:10.657Z,22.44
2017-09-29T13:25:45.513Z,22.43
2017-09-29T13:28:20.278Z,22.40
2017-09-29T13:30:55.225Z,22.26
2017-09-29T13:33:29.381Z,22.15
2017-09-29T13:36:04.562Z,22.11
2017-09-29T13:38:39.437Z,22.15
2017-09-29T13:41:14.217Z,22.27
2017-09-29T13:43:48.998Z,22.44
2017-09-29T13:46:23.725Z,22.53
2017-09-29T13:48:58.431Z,22.46
2017-09-29T13:51:33.157Z,22.55
2017-09-29T13:54:08.090Z,22.56
2017-09-29T13:56:43.043Z,22.64
2017-09-29T13:59:17.845Z,22.62
2017-09-29T14:01:52.493Z,22.66
2017-09-29T14:04:27.230Z,22.65
2017-09-29T14:07:02.027Z,22.65
2017-09-29T14:09:36.670Z,22.60
2017-09-29T14:12:11.509Z,22.46
2017-09-29T14:14:46.266Z,22.34
2017-09-29T14:17:20.998Z,22.30
2017-09-29T14:19:55.661Z,22.33
2017-09-29T14:22:30.397Z,22.41
2017-09-29T14:25:05.110Z,22.53
2017-09-29T14:27:40.106Z,22.66
2017-09-29T14:30:15.007Z,22.58
2017-09-29T14:32:50.137Z,22.65
2017-09-29T14:35:25.244Z,22.88
2017-09-29T14:37:59.889Z,22.96
2017-09-29T14:40:34.737Z,22.99
2017-09-29T14:43:09.483Z,23.13
2017-09-29T14:45:44.413Z,23.11
2017-09-29T14:48:19.213Z,22.96
2017-09-29T14:50:53.895Z,22.95
2017-09-29T14:53:28.621Z,22.91
2017-09-29T14:56:03.518Z,22.96
2017-09-29T14:58:38.478Z,22.88
2017-09-29T15:01:13.283Z,22.94
2017-09-29T15:03:48.840Z,22.95
2017-09-29T15:06:24.090Z,22.95
2017-09-29T15:08:58.846Z,22.88
2017-09-29T15:11:33.718Z,22.58
2017-09-29T15:14:08.577Z,22.59
2017-09-29T15:16:43.381Z,22.67
2017-09-29T15:19:18.238Z,22.59
2017-09-29T15:21:52.750Z,22.47
2017-09-29T15:24:27.581Z,22.28
2017-09-29T15:27:01.250Z,22.28
2017-09-29T15:29:36.537Z,22.17
2017-09-29T15:32:11.346Z,22.09
2017-09-29T15:34:46.178Z,22.02
2017-09-29T15:37:20.929Z,22.03
2017-09-29T15:39:55.882Z,22.11
2017-09-29T15:42:30.681Z,22.15
2017-09-29T15:45:06.021Z,22.18
2017-09-29T15:47:41.173Z,22.15
2017-09-29T15:50:15.902Z,22.23
2017-09-29T15:52:51.163Z,22.21
2017-09-29T15:55:28.646Z,22.25
2017-09-29T15:58:03.507Z,22.33
2017-09-29T16:00:38.385Z,22.33
2017-09-29T16:03:13.065Z,22.26
2017-09-29T16:05:47.978Z,22.28
2017-09-29T16:08:22.832Z,22.27
2017-09-29T16:10:57.782Z,22.16
2017-09-29T16:13:32.898Z,22.13
2017-09-29T16:16:07.942Z,22.05
2017-09-29T16:18:42.938Z,22.07
2017-09-29T16:21:17.706Z,22.05
2017-09-29T16:23:52.485Z,21.95
2017-09-29T16:26:27.253Z,21.88
2017-09-29T16:29:02.179Z,21.83
2017-09-29T16:31:37.117Z,21.82
2017-09-29T16:34:12.019Z,21.78
2017-09-29T16:36:46.912Z,21.71
2017-09-29T16:39:21.703Z,21.65
2017-09-29T16:41:56.578Z,21.55
2017-09-29T16:44:31.350Z,21.54
2017-09-29T16:47:06.229Z,21.48
2017-09-29T16:49:41.009Z,21.38
2017-09-29T16:52:15.917Z,21.33
2017-09-29T16:54:51.086Z,21.15
2017-09-29T16:57:26.151Z,21.07
2017-09-29T17:00:01.229Z,21.06
2017-09-29T17:02:36.034Z,21.11
2017-09-29T17:05:10.918Z,21.25
2017-09-29T17:07:45.542Z,21.29
2017-09-29T17:10:20.421Z,21.48
2017-09-29T17:12:55.222Z,21.55
2017-09-29T17:15:30.122Z,21.59
2017-09-29T17:18:05.108Z,21.53
2017-09-29T17:20:40.098Z,21.37
2017-09-29T17:23:15.034Z,21.26
2017-09-29T17:25:49.934Z,21.19
2017-09-29T17:28:24.818Z,21.12
2017-09-29T17:30:59.766Z,21.05
2017-09-29T17:33:34.662Z,21.01
2017-09-29T17:36:09.526Z,21.04
2017-09-29T17:38:44.171Z,21.01
2017-09-29T17:41:19.201Z,20.94
2017-09-29T17:43:54.165Z,20.87
2017-09-29T17:46:29.065Z,20.65
2017-09-29T17:49:03.893Z,20.34
2017-09-29T17:51:38.722Z,20.02
2017-09-29T17:54:13.802Z,19.81
2017-09-29T17:56:48.573Z,19.67
2017-09-29T17:59:23.510Z,19.61
2017-09-29T18:01:58.354Z,19.65
2017-09-29T18:04:33.413Z,19.65
2017-09-29T18:07:08.794Z,19.60
2017-09-29T18:09:43.576Z,19.52
2017-09-29T18:12:18.482Z,19.50
2017-09-29T18:14:53.317Z,19.57
2017-09-29T18:17:28.182Z,19.53
2017-09-29T18:20:04.405Z,19.33
2017-09-29T18:22:39.114Z,19.32
2017-09-29T18:25:14.349Z,19.40
2017-09-29T18:27:49.121Z,19.44
2017-09-29T18:30:23.770Z,19.45
2017-09-29T18:32:58.627Z,19.42
2017-09-29T18:35:33.674Z,19.38
2017-09-29T18:38:08.982Z,19.39
2017-09-29T18:40:43.749Z,19.33
2017-09-29T18:43:19.061Z,19.31
2017-09-29T18:45:56.094Z,19.29
2017-09-29T18:48:31.358Z,19.17
2017-09-29T18:51:06.070Z,19.15
2017-09-29T18:53:40.929Z,19.14
2017-09-29T18:56:15.765Z,19.14
2017-09-29T18:58:50.657Z,19.18
2017-09-29T19:01:25.490Z,19.18
2017-09-29T19:04:00.418Z,19.21
2017-09-29T19:06:35.385Z,19.22
2017-09-29T19:09:10.187Z,19.24
2017-09-29T19:11:45.206Z,19.19
2017-09-29T19:14:19.914Z,19.15
2017-09-29T19:16:54.461Z,19.17
2017-09-29T19:19:29.414Z,19.16
2017-09-29T19:22:04.347Z,19.13
2017-09-29T19:24:39.580Z,19.10
2017-09-29T19:27:14.358Z,19.10
2017-09-29T19:29:49.229Z,19.11
2017-09-29T19:32:24.251Z,19.13
2017-09-29T19:34:59.593Z,19.07
2017-09-29T19:37:34.478Z,19.13
2017-09-29T19:40:09.357Z,19.16
2017-09-29T19:42:44.530Z,19.17
2017-09-29T19:45:19.761Z,19.11
2017-09-29T19:47:54.818Z,19.09
2017-09-29T19:50:29.500Z,19.14
2017-09-29T19:53:04.493Z,19.09
2017-09-29T19:55:39.425Z,19.08
2017-09-29T19:58:14.402Z,19.04
2017-09-29T20:00:49.154Z,18.97
2017-09-29T20:03:24.181Z,18.98
2017-09-29T20:05:58.913Z,18.97
2017-09-29T20:08:34.165Z,18.92
2017-09-29T20:11:08.917Z,18.80
2017-09-29T20:13:43.748Z,18.78
2017-09-29T20:16:18.161Z,18.78
2017-09-29T20:18:52.817Z,18.76
2017-09-29T20:21:27.634Z,18.69
2017-09-29T20:24:02.613Z,18.68
2017-09-29T20:26:37.542Z,18.67
2017-09-29T20:29:12.902Z,18.70
2017-09-29T20:31:47.763Z,18.71
2017-09-29T20:34:22.881Z,18.66
2017-09-29T20:36:57.277Z,18.63
2017-09-29T20:39:32.161Z,18.63
2017-09-29T20:42:07.098Z,18.57
2017-09-29T20:44:41.881Z,18.54
2017-09-29T20:47:16.601Z,18.49
2017-09-29T20:49:51.503Z,18.51
2017-09-29T20:52:26.301Z,18.53
2017-09-29T20:55:00.953Z,18.46
2017-09-29T20:57:36.090Z,18.45
2017-09-29T21:00:11.019Z,18.42
2017-09-29T21:02:45.769Z,18.42
2017-09-29T21:05:20.649Z,18.49
2017-09-29T21:07:55.448Z,18.53
2017-09-29T21:10:30.301Z,18.56
2017-09-29T21:13:05.553Z,18.48
2017-09-29T21:15:40.067Z,18.42
2017-09-29T21:18:14.994Z,18.40
2017-09-29T21:20:50.042Z,18.34
2017-09-29T21:23:25.193Z,18.37
2017-09-29T21:25:59.878Z,18.40
2017-09-29T21:28:34.653Z,18.42
2017-09-29T21:31:09.465Z,18.48
2017-09-29T21:33:44.225Z,18.48
2017-09-29T21:36:19.338Z,18.45
2017-09-29T21:38:53.841Z,18.46
2017-09-29T21:41:28.902Z,18.50
2017-09-29T21:44:03.921Z,18.57
2017-09-29T21:46:38.791Z,18.61
2017-09-29T21:49:13.558Z,18.65
2017-09-29T21:51:48.393Z,18.57
2017-09-29T21:54:23.189Z,18.57
2017-09-29T21:56:58.197Z,18.54
2017-09-29T21:59:33.069Z,18.58
2017-09-29T22:02:08.149Z,18.51
2017-09-29T22:04:42.954Z,18.51
2017-09-29T22:07:17.731Z,18.51
2017-09-29T22:09:52.533Z,18.47
2017-09-29T22:12:27.654Z,18.47
2017-09-29T22:15:02.642Z,18.45
2017-09-29T22:17:37.693Z,18.43
2017-09-29T22:20:13.077Z,18.39
2017-09-29T22:22:47.945Z,18.41
2017-09-29T22:25:22.837Z,18.38
2017-09-29T22:27:57.685Z,18.40
2017-09-29T22:30:32.554Z,18.42
2017-09-29T22:33:07.346Z,18.41
2017-09-29T22:35:42.102Z,18.45
2017-09-29T22:38:16.882Z,18.39
2017-09-29T22:40:51.658Z,18.41
2017-09-29T22:43:26.469Z,18.42
2017-09-29T22:46:01.341Z,18.43
2017-09-29T22:48:36.317Z,18.47
2017-09-29T22:51:11.442Z,18.53
2017-09-29T22:53:46.521Z,18.54
2017-09-29T22:56:21.497Z,18.50
2017-09-29T22:58:56.378Z,18.51
2017-09-29T23:01:31.194Z,18.51
2017-09-29T23:04:06.072Z,18.48
2017-09-29T23:06:40.965Z,18.55
2017-09-29T23:09:16.046Z,18.62
2017-09-29T23:11:51.121Z,18.63
2017-09-29T23:14:26.137Z,18.67
2017-09-29T23:17:01.125Z,18.68
2017-09-29T23:19:36.087Z,18.73
2017-09-29T23:22:11.426Z,18.72
2017-09-29T23:24:46.313Z,18.73
2017-09-29T23:27:21.062Z,18.74
2017-09-29T23:29:56.109Z,18.75
2017-09-29T23:32:30.981Z,18.73
2017-09-29T23:35:06.058Z,18.67
2017-09-29T23:37:40.781Z,18.65
2017-09-29T23:40:15.642Z,18.65
2017-09-29T23:42:50.465Z,18.65
2017-09-29T23:45:25.545Z,18.67
2017-09-29T23:48:00.433Z,18.63
2017-09-29T23:50:35.249Z,18.61
2017-09-29T23:53:10.081Z,18.60
2017-09-29T23:55:44.806Z,18.57
2017-09-29T23:58:19.732Z,18.46
